sensor_id;sensor_type;location;lat;lon;timestamp;pressure;altitude;pressure_sealevel;temperature;humidity
50349;BME280;36250;48.740;22.174;2023-05-11T00:00:36;100739.91;;;11.70;48.48
50349;BME280;36250;48.740;22.174;2023-05-11T00:03:02;100742.25;;;11.67;49.54
50349;BME280;36250;48.740;22.174;2023-05-11T00:05:27;100743.13;;;11.56;49.57
50349;BME280;36250;48.740;22.174;2023-05-11T00:07:53;100742.69;;;11.47;49.97
50349;BME280;36250;48.740;22.174;2023-05-11T00:10:18;100751.47;;;11.38;51.18
50349;BME280;36250;48.740;22.174;2023-05-11T00:12:43;100751.28;;;11.28;50.54
50349;BME280;36250;48.740;22.174;2023-05-11T00:15:09;100755.19;;;11.20;50.37
50349;BME280;36250;48.740;22.174;2023-05-11T00:17:34;100751.91;;;11.18;51.53
50349;BME280;36250;48.740;22.174;2023-05-11T00:20:00;100744.44;;;11.13;51.81
50349;BME280;36250;48.740;22.174;2023-05-11T00:22:25;100757.97;;;11.08;52.58
50349;BME280;36250;48.740;22.174;2023-05-11T00:24:50;100750.28;;;10.94;52.83
50349;BME280;36250;48.740;22.174;2023-05-11T00:27:16;100753.03;;;10.82;52.81
50349;BME280;36250;48.740;22.174;2023-05-11T00:29:41;100745.22;;;10.74;53.92
50349;BME280;36250;48.740;22.174;2023-05-11T00:32:07;100746.91;;;10.64;54.65
50349;BME280;36250;48.740;22.174;2023-05-11T00:34:33;100743.09;;;10.41;55.35
50349;BME280;36250;48.740;22.174;2023-05-11T00:36:58;100751.72;;;10.27;55.65
50349;BME280;36250;48.740;22.174;2023-05-11T00:39:24;100752.19;;;10.12;55.66
50349;BME280;36250;48.740;22.174;2023-05-11T00:41:49;100750.25;;;10.13;55.44
50349;BME280;36250;48.740;22.174;2023-05-11T00:44:15;100754.06;;;10.12;55.07
50349;BME280;36250;48.740;22.174;2023-05-11T00:46:41;100757.38;;;10.14;55.28
50349;BME280;36250;48.740;22.174;2023-05-11T00:49:06;100756.09;;;10.16;55.41
50349;BME280;36250;48.740;22.174;2023-05-11T00:51:32;100755.00;;;10.17;55.71
50349;BME280;36250;48.740;22.174;2023-05-11T00:53:58;100758.50;;;10.06;55.86
50349;BME280;36250;48.740;22.174;2023-05-11T00:56:24;100760.06;;;10.02;56.75
50349;BME280;36250;48.740;22.174;2023-05-11T00:58:50;100762.84;;;9.96;56.76
50349;BME280;36250;48.740;22.174;2023-05-11T01:01:16;100762.72;;;9.90;56.86
50349;BME280;36250;48.740;22.174;2023-05-11T01:03:43;100764.38;;;9.91;56.65
50349;BME280;36250;48.740;22.174;2023-05-11T01:08:49;100767.56;;;9.88;57.12
50349;BME280;36250;48.740;22.174;2023-05-11T01:11:25;100771.81;;;9.84;56.96
50349;BME280;36250;48.740;22.174;2023-05-11T01:13:57;100780.44;;;9.81;57.39
50349;BME280;36250;48.740;22.174;2023-05-11T01:16:24;100775.78;;;9.70;58.27
50349;BME280;36250;48.740;22.174;2023-05-11T01:19:42;100771.81;;;9.55;58.70
50349;BME280;36250;48.740;22.174;2023-05-11T01:22:22;100776.75;;;9.46;58.88
50349;BME280;36250;48.740;22.174;2023-05-11T01:25:09;100775.22;;;9.32;58.64
50349;BME280;36250;48.740;22.174;2023-05-11T01:30:50;100774.78;;;9.17;58.62
50349;BME280;36250;48.740;22.174;2023-05-11T01:33:20;100772.69;;;9.19;58.53
50349;BME280;36250;48.740;22.174;2023-05-11T01:35:51;100772.38;;;9.27;58.08
50349;BME280;36250;48.740;22.174;2023-05-11T01:38:20;100775.47;;;9.31;58.04
50349;BME280;36250;48.740;22.174;2023-05-11T01:40:51;100773.00;;;9.29;57.77
50349;BME280;36250;48.740;22.174;2023-05-11T01:43:20;100771.22;;;9.35;57.70
50349;BME280;36250;48.740;22.174;2023-05-11T01:45:49;100771.22;;;9.35;57.72
50349;BME280;36250;48.740;22.174;2023-05-11T01:48:20;100772.66;;;9.37;57.81
50349;BME280;36250;48.740;22.174;2023-05-11T01:50:47;100778.69;;;9.39;57.26
50349;BME280;36250;48.740;22.174;2023-05-11T01:53:16;100781.94;;;9.48;57.13
50349;BME280;36250;48.740;22.174;2023-05-11T01:55:42;100780.06;;;9.48;58.11
50349;BME280;36250;48.740;22.174;2023-05-11T01:58:12;100786.09;;;9.50;57.52
50349;BME280;36250;48.740;22.174;2023-05-11T02:00:39;100778.09;;;9.55;58.20
50349;BME280;36250;48.740;22.174;2023-05-11T02:03:07;100780.66;;;9.50;58.11
50349;BME280;36250;48.740;22.174;2023-05-11T02:05:33;100770.63;;;9.51;57.98
50349;BME280;36250;48.740;22.174;2023-05-11T02:08:00;100783.59;;;9.49;57.74
50349;BME280;36250;48.740;22.174;2023-05-11T02:10:27;100786.41;;;9.42;57.91
50349;BME280;36250;48.740;22.174;2023-05-11T02:12:54;100780.06;;;9.30;58.27
50349;BME280;36250;48.740;22.174;2023-05-11T02:15:21;100775.25;;;9.14;58.74
50349;BME280;36250;48.740;22.174;2023-05-11T02:17:46;100787.00;;;9.08;59.17
50349;BME280;36250;48.740;22.174;2023-05-11T02:20:12;100785.38;;;9.07;59.34
50349;BME280;36250;48.740;22.174;2023-05-11T02:22:38;100788.09;;;9.07;59.65
50349;BME280;36250;48.740;22.174;2023-05-11T02:25:06;100781.97;;;9.11;59.55
50349;BME280;36250;48.740;22.174;2023-05-11T02:27:32;100784.69;;;9.11;59.58
50349;BME280;36250;48.740;22.174;2023-05-11T02:30:00;100788.44;;;9.10;59.60
50349;BME280;36250;48.740;22.174;2023-05-11T02:32:27;100785.81;;;9.04;59.63
50349;BME280;36250;48.740;22.174;2023-05-11T02:34:59;100795.16;;;8.90;60.16
50349;BME280;36250;48.740;22.174;2023-05-11T02:37:26;100792.84;;;8.69;61.19
50349;BME280;36250;48.740;22.174;2023-05-11T02:40:00;100795.53;;;8.50;61.34
50349;BME280;36250;48.740;22.174;2023-05-11T02:42:29;100797.97;;;8.34;62.01
50349;BME280;36250;48.740;22.174;2023-05-11T02:45:00;100803.66;;;8.19;62.93
50349;BME280;36250;48.740;22.174;2023-05-11T02:47:29;100806.06;;;8.09;63.40
50349;BME280;36250;48.740;22.174;2023-05-11T02:49:56;100803.38;;;8.03;63.51
50349;BME280;36250;48.740;22.174;2023-05-11T02:52:24;100802.59;;;7.95;63.57
50349;BME280;36250;48.740;22.174;2023-05-11T02:54:51;100795.06;;;7.97;63.76
50349;BME280;36250;48.740;22.174;2023-05-11T02:57:18;100799.69;;;7.97;63.58
50349;BME280;36250;48.740;22.174;2023-05-11T02:59:44;100806.50;;;8.06;63.80
50349;BME280;36250;48.740;22.174;2023-05-11T03:02:10;100801.25;;;8.11;63.10
50349;BME280;36250;48.740;22.174;2023-05-11T03:04:37;100800.81;;;8.14;63.56
50349;BME280;36250;48.740;22.174;2023-05-11T03:07:03;100800.34;;;8.17;63.70
50349;BME280;36250;48.740;22.174;2023-05-11T03:09:29;100807.28;;;8.13;63.59
50349;BME280;36250;48.740;22.174;2023-05-11T03:11:54;100803.13;;;8.11;63.79
50349;BME280;36250;48.740;22.174;2023-05-11T03:14:21;100807.09;;;8.08;63.98
50349;BME280;36250;48.740;22.174;2023-05-11T03:16:47;100807.59;;;7.99;64.15
50349;BME280;36250;48.740;22.174;2023-05-11T03:19:13;100809.69;;;7.97;64.59
50349;BME280;36250;48.740;22.174;2023-05-11T03:21:39;100805.31;;;7.95;64.91
50349;BME280;36250;48.740;22.174;2023-05-11T03:24:06;100808.44;;;7.99;65.00
50349;BME280;36250;48.740;22.174;2023-05-11T03:26:32;100810.66;;;8.09;64.43
50349;BME280;36250;48.740;22.174;2023-05-11T03:28:59;100811.44;;;8.16;64.82
50349;BME280;36250;48.740;22.174;2023-05-11T03:31:25;100808.50;;;8.17;64.76
50349;BME280;36250;48.740;22.174;2023-05-11T03:33:50;100809.31;;;8.18;64.53
50349;BME280;36250;48.740;22.174;2023-05-11T03:36:16;100809.03;;;8.32;64.39
50349;BME280;36250;48.740;22.174;2023-05-11T03:38:44;100806.50;;;8.37;64.44
50349;BME280;36250;48.740;22.174;2023-05-11T03:41:14;100809.81;;;8.39;64.59
50349;BME280;36250;48.740;22.174;2023-05-11T03:43:41;100819.19;;;8.43;64.16
50349;BME280;36250;48.740;22.174;2023-05-11T03:46:10;100818.47;;;8.54;64.18
50349;BME280;36250;48.740;22.174;2023-05-11T03:48:38;100805.28;;;8.58;64.07
50349;BME280;36250;48.740;22.174;2023-05-11T03:51:04;100816.69;;;8.67;64.05
50349;BME280;36250;48.740;22.174;2023-05-11T03:53:30;100817.16;;;8.82;63.50
50349;BME280;36250;48.740;22.174;2023-05-11T03:55:56;100815.59;;;8.92;63.13
50349;BME280;36250;48.740;22.174;2023-05-11T03:58:22;100822.59;;;9.00;63.32
50349;BME280;36250;48.740;22.174;2023-05-11T04:00:47;100821.28;;;9.09;63.11
50349;BME280;36250;48.740;22.174;2023-05-11T04:03:13;100823.22;;;9.20;63.11
50349;BME280;36250;48.740;22.174;2023-05-11T04:05:39;100829.41;;;9.27;62.72
50349;BME280;36250;48.740;22.174;2023-05-11T04:08:05;100829.72;;;9.37;62.46
50349;BME280;36250;48.740;22.174;2023-05-11T04:10:31;100827.06;;;9.49;62.16
50349;BME280;36250;48.740;22.174;2023-05-11T04:12:56;100830.47;;;9.62;62.01
50349;BME280;36250;48.740;22.174;2023-05-11T04:15:22;100830.75;;;9.72;61.46
50349;BME280;36250;48.740;22.174;2023-05-11T04:17:47;100822.88;;;9.82;62.15
50349;BME280;36250;48.740;22.174;2023-05-11T04:20:12;100823.06;;;9.99;61.92
50349;BME280;36250;48.740;22.174;2023-05-11T04:22:38;100821.72;;;10.20;61.64
50349;BME280;36250;48.740;22.174;2023-05-11T04:25:03;100818.94;;;10.38;61.50
50349;BME280;36250;48.740;22.174;2023-05-11T04:27:32;100814.59;;;10.60;60.22
50349;BME280;36250;48.740;22.174;2023-05-11T04:29:58;100820.53;;;10.80;59.98
50349;BME280;36250;48.740;22.174;2023-05-11T04:32:24;100823.47;;;11.02;58.87
50349;BME280;36250;48.740;22.174;2023-05-11T04:34:49;100811.84;;;11.18;58.03
50349;BME280;36250;48.740;22.174;2023-05-11T04:37:15;100815.25;;;11.37;57.71
50349;BME280;36250;48.740;22.174;2023-05-11T04:39:40;100822.09;;;11.51;56.74
50349;BME280;36250;48.740;22.174;2023-05-11T04:42:05;100819.44;;;11.67;57.51
50349;BME280;36250;48.740;22.174;2023-05-11T04:44:31;100821.75;;;11.87;56.28
50349;BME280;36250;48.740;22.174;2023-05-11T04:46:56;100825.84;;;12.01;56.23
50349;BME280;36250;48.740;22.174;2023-05-11T04:49:22;100823.75;;;12.20;55.44
50349;BME280;36250;48.740;22.174;2023-05-11T04:51:47;100818.31;;;12.36;55.10
50349;BME280;36250;48.740;22.174;2023-05-11T04:54:12;100823.28;;;12.56;54.77
50349;BME280;36250;48.740;22.174;2023-05-11T04:56:38;100818.88;;;12.72;54.51
50349;BME280;36250;48.740;22.174;2023-05-11T04:59:07;100829.47;;;12.85;53.92
50349;BME280;36250;48.740;22.174;2023-05-11T05:01:33;100820.19;;;13.02;54.39
50349;BME280;36250;48.740;22.174;2023-05-11T05:03:58;100826.97;;;13.16;55.36
50349;BME280;36250;48.740;22.174;2023-05-11T05:06:23;100825.59;;;13.36;54.91
50349;BME280;36250;48.740;22.174;2023-05-11T05:08:49;100827.91;;;13.44;52.51
50349;BME280;36250;48.740;22.174;2023-05-11T05:11:14;100826.38;;;13.53;53.19
50349;BME280;36250;48.740;22.174;2023-05-11T05:13:40;100829.00;;;13.64;52.17
50349;BME280;36250;48.740;22.174;2023-05-11T05:16:05;100819.31;;;13.78;51.64
50349;BME280;36250;48.740;22.174;2023-05-11T05:18:31;100825.69;;;13.89;51.55
50349;BME280;36250;48.740;22.174;2023-05-11T05:20:56;100832.44;;;14.03;51.51
50349;BME280;36250;48.740;22.174;2023-05-11T05:23:22;100821.34;;;14.15;52.34
50349;BME280;36250;48.740;22.174;2023-05-11T05:25:47;100827.38;;;14.17;52.21
50349;BME280;36250;48.740;22.174;2023-05-11T05:28:12;100829.59;;;14.20;53.08
50349;BME280;36250;48.740;22.174;2023-05-11T05:30:37;100835.38;;;14.23;52.19
50349;BME280;36250;48.740;22.174;2023-05-11T05:33:03;100833.31;;;14.30;52.48
50349;BME280;36250;48.740;22.174;2023-05-11T05:35:28;100830.88;;;14.34;52.16
50349;BME280;36250;48.740;22.174;2023-05-11T05:37:53;100837.53;;;14.43;52.42
50349;BME280;36250;48.740;22.174;2023-05-11T05:40:19;100836.03;;;14.57;51.77
50349;BME280;36250;48.740;22.174;2023-05-11T05:42:44;100833.34;;;14.67;51.99
50349;BME280;36250;48.740;22.174;2023-05-11T05:45:10;100840.00;;;14.76;51.52
50349;BME280;36250;48.740;22.174;2023-05-11T05:47:36;100840.06;;;14.81;51.27
50349;BME280;36250;48.740;22.174;2023-05-11T05:50:02;100831.94;;;14.96;48.54
50349;BME280;36250;48.740;22.174;2023-05-11T05:52:27;100834.56;;;15.18;47.17
50349;BME280;36250;48.740;22.174;2023-05-11T05:54:53;100829.16;;;15.38;46.92
50349;BME280;36250;48.740;22.174;2023-05-11T05:57:18;100843.00;;;15.53;45.83
50349;BME280;36250;48.740;22.174;2023-05-11T05:59:43;100842.19;;;15.58;47.10
50349;BME280;36250;48.740;22.174;2023-05-11T06:02:09;100840.91;;;15.75;46.67
50349;BME280;36250;48.740;22.174;2023-05-11T06:04:35;100838.75;;;15.88;47.79
50349;BME280;36250;48.740;22.174;2023-05-11T06:07:01;100839.28;;;15.90;46.34
50349;BME280;36250;48.740;22.174;2023-05-11T06:09:26;100845.66;;;16.05;46.44
50349;BME280;36250;48.740;22.174;2023-05-11T06:11:51;100844.03;;;16.19;44.33
50349;BME280;36250;48.740;22.174;2023-05-11T06:14:20;100837.50;;;16.30;44.15
50349;BME280;36250;48.740;22.174;2023-05-11T06:16:47;100843.00;;;16.35;45.10
50349;BME280;36250;48.740;22.174;2023-05-11T06:19:12;100843.56;;;16.42;44.77
50349;BME280;36250;48.740;22.174;2023-05-11T06:21:38;100847.16;;;16.53;44.67
50349;BME280;36250;48.740;22.174;2023-05-11T06:24:06;100841.94;;;16.62;43.74
50349;BME280;36250;48.740;22.174;2023-05-11T06:26:31;100844.69;;;16.62;42.83
50349;BME280;36250;48.740;22.174;2023-05-11T06:28:56;100832.59;;;16.68;43.30
50349;BME280;36250;48.740;22.174;2023-05-11T06:31:21;100839.75;;;16.79;41.80
50349;BME280;36250;48.740;22.174;2023-05-11T06:33:48;100840.84;;;16.83;42.69
50349;BME280;36250;48.740;22.174;2023-05-11T06:36:13;100844.69;;;16.92;42.84
50349;BME280;36250;48.740;22.174;2023-05-11T06:38:39;100841.38;;;16.90;42.65
50349;BME280;36250;48.740;22.174;2023-05-11T06:41:04;100840.81;;;16.88;42.76
50349;BME280;36250;48.740;22.174;2023-05-11T06:43:30;100840.81;;;16.93;42.53
50349;BME280;36250;48.740;22.174;2023-05-11T06:45:55;100838.63;;;17.05;43.58
50349;BME280;36250;48.740;22.174;2023-05-11T06:48:21;100836.97;;;17.09;43.26
50349;BME280;36250;48.740;22.174;2023-05-11T06:50:48;100847.13;;;17.24;43.43
50349;BME280;36250;48.740;22.174;2023-05-11T06:53:13;100839.66;;;17.29;41.72
50349;BME280;36250;48.740;22.174;2023-05-11T06:55:41;100842.94;;;17.31;41.09
50349;BME280;36250;48.740;22.174;2023-05-11T06:58:06;100829.75;;;17.33;40.37
50349;BME280;36250;48.740;22.174;2023-05-11T07:00:31;100840.50;;;17.30;40.75
50349;BME280;36250;48.740;22.174;2023-05-11T07:02:57;100832.75;;;17.42;40.95
50349;BME280;36250;48.740;22.174;2023-05-11T07:05:22;100829.97;;;17.57;41.68
50349;BME280;36250;48.740;22.174;2023-05-11T07:07:47;100832.97;;;17.65;40.47
50349;BME280;36250;48.740;22.174;2023-05-11T07:10:13;100832.41;;;17.68;39.82
50349;BME280;36250;48.740;22.174;2023-05-11T07:12:38;100835.09;;;17.84;40.55
50349;BME280;36250;48.740;22.174;2023-05-11T07:15:04;100830.38;;;17.94;39.92
50349;BME280;36250;48.740;22.174;2023-05-11T07:17:29;100831.94;;;18.05;40.97
50349;BME280;36250;48.740;22.174;2023-05-11T07:19:55;100830.50;;;18.18;39.35
50349;BME280;36250;48.740;22.174;2023-05-11T07:22:20;100821.69;;;18.21;38.91
50349;BME280;36250;48.740;22.174;2023-05-11T07:24:46;100820.56;;;18.17;37.93
50349;BME280;36250;48.740;22.174;2023-05-11T07:27:11;100824.44;;;18.21;39.07
50349;BME280;36250;48.740;22.174;2023-05-11T07:29:36;100823.25;;;18.32;39.58
50349;BME280;36250;48.740;22.174;2023-05-11T07:32:02;100822.94;;;18.38;37.56
50349;BME280;36250;48.740;22.174;2023-05-11T07:34:27;100820.41;;;18.42;39.03
50349;BME280;36250;48.740;22.174;2023-05-11T07:36:53;100823.97;;;18.53;37.92
50349;BME280;36250;48.740;22.174;2023-05-11T07:39:18;100832.47;;;18.56;37.91
50349;BME280;36250;48.740;22.174;2023-05-11T07:41:44;100828.28;;;18.64;37.78
50349;BME280;36250;48.740;22.174;2023-05-11T07:44:09;100827.47;;;18.63;37.53
50349;BME280;36250;48.740;22.174;2023-05-11T07:46:35;100827.66;;;18.72;37.70
50349;BME280;36250;48.740;22.174;2023-05-11T07:49:00;100827.91;;;18.75;36.84
50349;BME280;36250;48.740;22.174;2023-05-11T07:51:26;100826.75;;;18.81;36.89
50349;BME280;36250;48.740;22.174;2023-05-11T07:53:51;100822.34;;;18.80;36.65
50349;BME280;36250;48.740;22.174;2023-05-11T07:56:17;100826.22;;;18.79;37.22
50349;BME280;36250;48.740;22.174;2023-05-11T07:58:42;100824.47;;;18.88;37.05
50349;BME280;36250;48.740;22.174;2023-05-11T08:01:08;100832.34;;;19.00;37.26
50349;BME280;36250;48.740;22.174;2023-05-11T08:03:33;100822.97;;;19.01;36.00
50349;BME280;36250;48.740;22.174;2023-05-11T08:05:58;100831.94;;;19.17;36.47
50349;BME280;36250;48.740;22.174;2023-05-11T08:08:24;100825.22;;;19.23;36.31
50349;BME280;36250;48.740;22.174;2023-05-11T08:10:50;100821.94;;;19.21;36.35
50349;BME280;36250;48.740;22.174;2023-05-11T08:13:16;100823.41;;;19.42;37.21
50349;BME280;36250;48.740;22.174;2023-05-11T08:15:41;100819.03;;;19.59;36.43
50349;BME280;36250;48.740;22.174;2023-05-11T08:18:06;100823.03;;;19.72;36.55
50349;BME280;36250;48.740;22.174;2023-05-11T08:20:32;100820.78;;;19.74;35.35
50349;BME280;36250;48.740;22.174;2023-05-11T08:22:57;100819.16;;;19.49;37.17
50349;BME280;36250;48.740;22.174;2023-05-11T08:25:23;100813.78;;;19.63;36.27
50349;BME280;36250;48.740;22.174;2023-05-11T08:27:48;100814.81;;;19.67;35.98
50349;BME280;36250;48.740;22.174;2023-05-11T08:30:14;100816.47;;;19.68;34.77
50349;BME280;36250;48.740;22.174;2023-05-11T08:32:40;100815.34;;;19.69;35.49
50349;BME280;36250;48.740;22.174;2023-05-11T08:35:05;100812.75;;;19.54;35.88
50349;BME280;36250;48.740;22.174;2023-05-11T08:37:31;100808.13;;;19.49;36.28
50349;BME280;36250;48.740;22.174;2023-05-11T08:39:56;100804.53;;;19.49;35.02
50349;BME280;36250;48.740;22.174;2023-05-11T08:42:23;100808.47;;;19.66;35.27
50349;BME280;36250;48.740;22.174;2023-05-11T08:44:49;100801.63;;;19.83;34.73
50349;BME280;36250;48.740;22.174;2023-05-11T08:47:18;100797.97;;;20.06;35.04
50349;BME280;36250;48.740;22.174;2023-05-11T08:49:44;100800.53;;;20.21;34.55
50349;BME280;36250;48.740;22.174;2023-05-11T08:52:09;100801.81;;;20.28;34.33
50349;BME280;36250;48.740;22.174;2023-05-11T08:54:37;100789.94;;;20.47;34.14
50349;BME280;36250;48.740;22.174;2023-05-11T08:57:02;100795.72;;;20.64;33.57
50349;BME280;36250;48.740;22.174;2023-05-11T08:59:28;100793.91;;;20.73;32.87
50349;BME280;36250;48.740;22.174;2023-05-11T09:01:57;100790.41;;;20.81;32.16
50349;BME280;36250;48.740;22.174;2023-05-11T09:04:23;100792.50;;;20.89;31.46
50349;BME280;36250;48.740;22.174;2023-05-11T09:06:50;100788.53;;;20.63;31.73
50349;BME280;36250;48.740;22.174;2023-05-11T09:09:15;100780.25;;;20.63;32.41
50349;BME280;36250;48.740;22.174;2023-05-11T09:11:43;100788.06;;;20.74;33.26
50349;BME280;36250;48.740;22.174;2023-05-11T09:14:09;100785.97;;;20.98;32.16
50349;BME280;36250;48.740;22.174;2023-05-11T09:16:34;100778.31;;;21.09;33.04
50349;BME280;36250;48.740;22.174;2023-05-11T09:19:00;100786.38;;;20.92;31.49
50349;BME280;36250;48.740;22.174;2023-05-11T09:21:26;100776.44;;;20.59;32.62
50349;BME280;36250;48.740;22.174;2023-05-11T09:23:57;100784.47;;;20.42;32.06
50349;BME280;36250;48.740;22.174;2023-05-11T09:26:26;100776.94;;;20.28;33.03
50349;BME280;36250;48.740;22.174;2023-05-11T09:28:57;100783.19;;;20.15;32.86
50349;BME280;36250;48.740;22.174;2023-05-11T09:34:18;100782.06;;;19.98;33.42
50349;BME280;36250;48.740;22.174;2023-05-11T09:36:46;100778.41;;;19.84;31.56
50349;BME280;36250;48.740;22.174;2023-05-11T09:39:13;100776.84;;;19.78;30.20
50349;BME280;36250;48.740;22.174;2023-05-11T09:41:38;100773.00;;;19.74;30.44
50349;BME280;36250;48.740;22.174;2023-05-11T09:44:13;100767.19;;;19.75;30.23
50349;BME280;36250;48.740;22.174;2023-05-11T09:46:41;100769.44;;;20.10;29.94
50349;BME280;36250;48.740;22.174;2023-05-11T09:49:07;100755.00;;;20.51;30.46
50349;BME280;36250;48.740;22.174;2023-05-11T09:51:37;100762.28;;;20.92;31.25
50349;BME280;36250;48.740;22.174;2023-05-11T09:54:19;100755.81;;;20.97;29.74
50349;BME280;36250;48.740;22.174;2023-05-11T09:56:49;100765.63;;;20.76;30.38
50349;BME280;36250;48.740;22.174;2023-05-11T09:59:19;100761.00;;;20.71;30.53
50349;BME280;36250;48.740;22.174;2023-05-11T10:04:39;100765.31;;;20.77;30.03
50349;BME280;36250;48.740;22.174;2023-05-11T10:07:05;100755.69;;;20.75;29.88
50349;BME280;36250;48.740;22.174;2023-05-11T10:09:31;100736.81;;;20.77;28.49
50349;BME280;36250;48.740;22.174;2023-05-11T10:11:57;100739.56;;;21.09;29.28
50349;BME280;36250;48.740;22.174;2023-05-11T10:14:23;100745.94;;;21.37;28.98
50349;BME280;36250;48.740;22.174;2023-05-11T10:16:49;100748.66;;;21.64;28.69
50349;BME280;36250;48.740;22.174;2023-05-11T10:19:16;100732.94;;;21.87;28.15
50349;BME280;36250;48.740;22.174;2023-05-11T10:21:43;100725.03;;;22.16;27.53
50349;BME280;36250;48.740;22.174;2023-05-11T10:24:09;100723.41;;;22.37;27.76
50349;BME280;36250;48.740;22.174;2023-05-11T10:26:35;100728.63;;;22.61;26.88
50349;BME280;36250;48.740;22.174;2023-05-11T10:29:01;100717.16;;;22.54;27.22
50349;BME280;36250;48.740;22.174;2023-05-11T10:31:28;100719.09;;;22.75;26.73
50349;BME280;36250;48.740;22.174;2023-05-11T10:33:54;100717.69;;;22.86;27.68
50349;BME280;36250;48.740;22.174;2023-05-11T10:36:22;100721.53;;;22.77;25.64
50349;BME280;36250;48.740;22.174;2023-05-11T10:38:48;100716.09;;;22.63;26.16
50349;BME280;36250;48.740;22.174;2023-05-11T10:41:38;100724.28;;;22.46;26.01
50349;BME280;36250;48.740;22.174;2023-05-11T10:45:20;100725.81;;;22.08;26.15
50349;BME280;36250;48.740;22.174;2023-05-11T10:55:55;100702.75;;;21.36;27.27
50349;BME280;36250;48.740;22.174;2023-05-11T11:03:57;100698.25;;;21.26;27.03
50349;BME280;36250;48.740;22.174;2023-05-11T11:06:23;100693.53;;;21.27;27.34
50349;BME280;36250;48.740;22.174;2023-05-11T11:09:08;100696.25;;;21.40;28.15
50349;BME280;36250;48.740;22.174;2023-05-11T11:11:37;100699.03;;;21.40;27.38
50349;BME280;36250;48.740;22.174;2023-05-11T11:14:04;100693.28;;;21.50;28.48
50349;BME280;36250;48.740;22.174;2023-05-11T11:16:34;100681.53;;;21.67;28.10
50349;BME280;36250;48.740;22.174;2023-05-11T11:19:35;100678.53;;;21.91;27.41
50349;BME280;36250;48.740;22.174;2023-05-11T11:22:01;100670.91;;;22.18;25.07
50349;BME280;36250;48.740;22.174;2023-05-11T11:27:04;100664.03;;;22.16;25.48
50349;BME280;36250;48.740;22.174;2023-05-11T11:29:30;100670.53;;;22.11;26.39
50349;BME280;36250;48.740;22.174;2023-05-11T11:34:50;100672.50;;;21.39;26.72
50349;BME280;36250;48.740;22.174;2023-05-11T11:37:16;100667.13;;;21.43;27.25
50349;BME280;36250;48.740;22.174;2023-05-11T11:42:12;100655.41;;;22.17;27.03
50349;BME280;36250;48.740;22.174;2023-05-11T11:44:38;100655.63;;;22.60;26.52
50349;BME280;36250;48.740;22.174;2023-05-11T11:47:17;100646.56;;;22.68;24.75
50349;BME280;36250;48.740;22.174;2023-05-11T11:49:45;100644.81;;;22.50;24.97
50349;BME280;36250;48.740;22.174;2023-05-11T11:54:56;100650.56;;;22.84;26.29
50349;BME280;36250;48.740;22.174;2023-05-11T12:00:06;100638.19;;;23.47;24.74
50349;BME280;36250;48.740;22.174;2023-05-11T12:02:39;100636.53;;;23.80;23.84
50349;BME280;36250;48.740;22.174;2023-05-11T12:05:12;100638.19;;;24.07;24.70
50349;BME280;36250;48.740;22.174;2023-05-11T12:07:43;100638.97;;;24.25;24.86
50349;BME280;36250;48.740;22.174;2023-05-11T12:10:11;100644.31;;;24.47;23.19
50349;BME280;36250;48.740;22.174;2023-05-11T12:12:38;100630.72;;;24.54;21.84
50349;BME280;36250;48.740;22.174;2023-05-11T12:15:05;100623.44;;;24.15;21.72
50349;BME280;36250;48.740;22.174;2023-05-11T12:17:31;100615.94;;;24.07;23.36
50349;BME280;36250;48.740;22.174;2023-05-11T12:20:13;100614.19;;;24.49;22.88
50349;BME280;36250;48.740;22.174;2023-05-11T12:22:38;100613.28;;;24.74;22.38
50349;BME280;36250;48.740;22.174;2023-05-11T12:25:05;100612.13;;;24.84;22.15
50349;BME280;36250;48.740;22.174;2023-05-11T12:27:30;100616.13;;;24.95;22.05
50349;BME280;36250;48.740;22.174;2023-05-11T12:29:56;100606.38;;;25.09;22.23
50349;BME280;36250;48.740;22.174;2023-05-11T12:32:30;100611.34;;;25.04;21.09
50349;BME280;36250;48.740;22.174;2023-05-11T12:35:02;100608.03;;;24.72;21.83
50349;BME280;36250;48.740;22.174;2023-05-11T12:37:29;100606.84;;;24.91;21.83
50349;BME280;36250;48.740;22.174;2023-05-11T12:39:55;100598.03;;;25.09;20.81
50349;BME280;36250;48.740;22.174;2023-05-11T12:42:21;100597.72;;;25.11;22.18
50349;BME280;36250;48.740;22.174;2023-05-11T12:44:47;100595.88;;;25.15;20.98
50349;BME280;36250;48.740;22.174;2023-05-11T12:47:13;100588.69;;;24.76;21.12
50349;BME280;36250;48.740;22.174;2023-05-11T12:49:40;100588.28;;;24.57;21.72
50349;BME280;36250;48.740;22.174;2023-05-11T12:52:06;100589.19;;;24.78;22.67
50349;BME280;36250;48.740;22.174;2023-05-11T12:54:36;100592.06;;;25.19;21.84
50349;BME280;36250;48.740;22.174;2023-05-11T12:57:03;100592.09;;;25.40;20.85
50349;BME280;36250;48.740;22.174;2023-05-11T12:59:34;100581.19;;;25.26;18.87
50349;BME280;36250;48.740;22.174;2023-05-11T13:04:34;100579.53;;;25.05;20.82
50349;BME280;36250;48.740;22.174;2023-05-11T13:07:00;100582.88;;;25.19;20.44
50349;BME280;36250;48.740;22.174;2023-05-11T13:09:26;100574.00;;;25.25;18.93
50349;BME280;36250;48.740;22.174;2023-05-11T13:14:33;100553.28;;;25.56;20.93
50349;BME280;36250;48.740;22.174;2023-05-11T13:16:58;100557.97;;;25.64;20.52
50349;BME280;36250;48.740;22.174;2023-05-11T13:19:28;100553.22;;;25.64;21.01
50349;BME280;36250;48.740;22.174;2023-05-11T13:21:54;100544.44;;;25.54;20.32
50349;BME280;36250;48.740;22.174;2023-05-11T13:24:21;100547.56;;;25.52;20.58
50349;BME280;36250;48.740;22.174;2023-05-11T13:26:47;100547.38;;;25.57;20.25